Terminal Aerodrome Forecast
Issued by NWS

Home | Current Version | Previous Version | Text Only | Print | Product List | Glossary Off
Versions: 1 2 3 4 5 6 7 8 9 10 11 12

000
FTUS41 KCLE 221700
TAFFDY
TAF
KFDY 221737Z 2218/2318 27015G25KT P6SM SCT035 OVC045
     FM230000 26010KT P6SM BKN035
     FM231400 29014G22KT P6SM BKN035 OVC045=

USA.gov is the U.S. government's official web portal to all federal, state and local government web resources and services.